sensor_id;sensor_type;location;lat;lon;timestamp;temperature;humidity
11264;DHT22;5689;48.798;9.070;2023-08-20T00:00:14;23.80;99.90
11264;DHT22;5689;48.798;9.070;2023-08-20T00:02:43;23.90;99.90
11264;DHT22;5689;48.798;9.070;2023-08-20T00:05:14;23.90;99.90
11264;DHT22;5689;48.798;9.070;2023-08-20T00:07:44;23.80;99.90
11264;DHT22;5689;48.798;9.070;2023-08-20T00:10:12;23.80;99.90
11264;DHT22;5689;48.798;9.070;2023-08-20T00:12:40;23.70;99.90
11264;DHT22;5689;48.798;9.070;2023-08-20T00:15:08;23.70;99.90
11264;DHT22;5689;48.798;9.070;2023-08-20T00:17:38;23.70;99.90
11264;DHT22;5689;48.798;9.070;2023-08-20T00:20:08;23.80;99.90
11264;DHT22;5689;48.798;9.070;2023-08-20T00:22:40;23.70;99.90
11264;DHT22;5689;48.798;9.070;2023-08-20T00:25:14;23.60;99.90
11264;DHT22;5689;48.798;9.070;2023-08-20T00:27:43;23.60;99.90
11264;DHT22;5689;48.798;9.070;2023-08-20T00:30:12;23.60;99.90
11264;DHT22;5689;48.798;9.070;2023-08-20T00:32:41;23.60;99.90
11264;DHT22;5689;48.798;9.070;2023-08-20T00:35:09;23.60;99.90
11264;DHT22;5689;48.798;9.070;2023-08-20T00:37:37;23.50;99.90
11264;DHT22;5689;48.798;9.070;2023-08-20T00:40:06;23.60;99.90
11264;DHT22;5689;48.798;9.070;2023-08-20T00:42:36;23.50;99.90
11264;DHT22;5689;48.798;9.070;2023-08-20T00:45:08;23.40;99.90
11264;DHT22;5689;48.798;9.070;2023-08-20T00:47:36;23.30;99.90
11264;DHT22;5689;48.798;9.070;2023-08-20T00:50:06;23.20;99.90
11264;DHT22;5689;48.798;9.070;2023-08-20T00:52:35;23.30;99.90
11264;DHT22;5689;48.798;9.070;2023-08-20T00:55:08;23.40;99.90
11264;DHT22;5689;48.798;9.070;2023-08-20T00:57:38;23.40;99.90
11264;DHT22;5689;48.798;9.070;2023-08-20T01:00:07;23.40;99.90
11264;DHT22;5689;48.798;9.070;2023-08-20T01:02:38;23.40;99.90
11264;DHT22;5689;48.798;9.070;2023-08-20T01:05:08;23.20;99.90
11264;DHT22;5689;48.798;9.070;2023-08-20T01:07:45;23.20;99.90
11264;DHT22;5689;48.798;9.070;2023-08-20T01:10:19;23.20;99.90
11264;DHT22;5689;48.798;9.070;2023-08-20T01:12:51;23.40;99.90
11264;DHT22;5689;48.798;9.070;2023-08-20T01:15:20;23.30;99.90
11264;DHT22;5689;48.798;9.070;2023-08-20T01:17:48;23.10;99.90
11264;DHT22;5689;48.798;9.070;2023-08-20T01:20:17;23.00;99.90
11264;DHT22;5689;48.798;9.070;2023-08-20T01:23:09;23.00;99.90
11264;DHT22;5689;48.798;9.070;2023-08-20T01:25:49;23.00;99.90
11264;DHT22;5689;48.798;9.070;2023-08-20T01:28:28;23.10;99.90
11264;DHT22;5689;48.798;9.070;2023-08-20T01:30:57;23.10;99.90
11264;DHT22;5689;48.798;9.070;2023-08-20T01:33:26;23.00;99.90
11264;DHT22;5689;48.798;9.070;2023-08-20T01:35:55;22.90;99.90
11264;DHT22;5689;48.798;9.070;2023-08-20T01:38:23;22.90;99.90
11264;DHT22;5689;48.798;9.070;2023-08-20T01:40:51;22.80;99.90
11264;DHT22;5689;48.798;9.070;2023-08-20T01:43:20;22.80;99.90
11264;DHT22;5689;48.798;9.070;2023-08-20T01:45:49;22.90;99.90
11264;DHT22;5689;48.798;9.070;2023-08-20T01:48:17;22.80;99.90
11264;DHT22;5689;48.798;9.070;2023-08-20T01:50:45;22.70;99.90
11264;DHT22;5689;48.798;9.070;2023-08-20T01:53:13;22.70;99.90
11264;DHT22;5689;48.798;9.070;2023-08-20T01:55:41;22.70;99.90
11264;DHT22;5689;48.798;9.070;2023-08-20T01:58:09;22.70;99.90
11264;DHT22;5689;48.798;9.070;2023-08-20T02:00:38;22.60;99.90
11264;DHT22;5689;48.798;9.070;2023-08-20T02:03:07;22.60;99.90
11264;DHT22;5689;48.798;9.070;2023-08-20T02:05:35;22.50;99.90
11264;DHT22;5689;48.798;9.070;2023-08-20T02:08:08;22.50;99.90
11264;DHT22;5689;48.798;9.070;2023-08-20T02:10:36;22.40;99.90
11264;DHT22;5689;48.798;9.070;2023-08-20T02:13:04;22.30;99.90
11264;DHT22;5689;48.798;9.070;2023-08-20T02:15:33;22.40;99.90
11264;DHT22;5689;48.798;9.070;2023-08-20T02:18:01;22.30;99.90
11264;DHT22;5689;48.798;9.070;2023-08-20T02:20:34;22.40;99.90
11264;DHT22;5689;48.798;9.070;2023-08-20T02:23:02;22.30;99.90
11264;DHT22;5689;48.798;9.070;2023-08-20T02:25:31;22.30;99.90
11264;DHT22;5689;48.798;9.070;2023-08-20T02:27:59;22.20;99.90
11264;DHT22;5689;48.798;9.070;2023-08-20T02:30:27;22.10;99.90
11264;DHT22;5689;48.798;9.070;2023-08-20T02:32:55;22.20;99.90
11264;DHT22;5689;48.798;9.070;2023-08-20T02:35:23;22.10;99.90
11264;DHT22;5689;48.798;9.070;2023-08-20T02:37:52;22.10;99.90
11264;DHT22;5689;48.798;9.070;2023-08-20T02:40:20;22.40;99.90
11264;DHT22;5689;48.798;9.070;2023-08-20T02:42:48;22.40;99.90
11264;DHT22;5689;48.798;9.070;2023-08-20T02:45:16;22.20;99.90
11264;DHT22;5689;48.798;9.070;2023-08-20T02:47:44;22.10;99.90
11264;DHT22;5689;48.798;9.070;2023-08-20T02:50:12;22.10;99.90
11264;DHT22;5689;48.798;9.070;2023-08-20T02:52:42;21.90;99.90
11264;DHT22;5689;48.798;9.070;2023-08-20T02:55:11;22.00;99.90
11264;DHT22;5689;48.798;9.070;2023-08-20T02:57:39;22.00;99.90
11264;DHT22;5689;48.798;9.070;2023-08-20T03:00:08;22.00;99.90
11264;DHT22;5689;48.798;9.070;2023-08-20T03:02:38;21.90;99.90
11264;DHT22;5689;48.798;9.070;2023-08-20T03:05:07;21.90;99.90
11264;DHT22;5689;48.798;9.070;2023-08-20T03:07:35;21.80;99.90
11264;DHT22;5689;48.798;9.070;2023-08-20T03:10:04;21.80;99.90
11264;DHT22;5689;48.798;9.070;2023-08-20T03:12:34;21.80;99.90
11264;DHT22;5689;48.798;9.070;2023-08-20T03:15:02;21.80;99.90
11264;DHT22;5689;48.798;9.070;2023-08-20T03:17:30;21.90;99.90
11264;DHT22;5689;48.798;9.070;2023-08-20T03:19:59;21.90;99.90
11264;DHT22;5689;48.798;9.070;2023-08-20T03:22:27;21.80;99.90
11264;DHT22;5689;48.798;9.070;2023-08-20T03:24:56;21.70;99.90
11264;DHT22;5689;48.798;9.070;2023-08-20T03:27:24;21.60;99.90
11264;DHT22;5689;48.798;9.070;2023-08-20T03:29:53;21.50;99.90
11264;DHT22;5689;48.798;9.070;2023-08-20T03:32:22;21.40;99.90
11264;DHT22;5689;48.798;9.070;2023-08-20T03:34:50;21.70;99.90
11264;DHT22;5689;48.798;9.070;2023-08-20T03:37:20;21.70;99.90
11264;DHT22;5689;48.798;9.070;2023-08-20T03:39:48;21.60;99.90
11264;DHT22;5689;48.798;9.070;2023-08-20T03:42:16;21.40;99.90
11264;DHT22;5689;48.798;9.070;2023-08-20T03:44:44;21.40;99.90
11264;DHT22;5689;48.798;9.070;2023-08-20T03:47:14;21.40;99.90
11264;DHT22;5689;48.798;9.070;2023-08-20T03:49:42;21.50;99.90
11264;DHT22;5689;48.798;9.070;2023-08-20T03:52:10;21.40;99.90
11264;DHT22;5689;48.798;9.070;2023-08-20T03:54:38;21.30;99.90
11264;DHT22;5689;48.798;9.070;2023-08-20T03:57:06;21.30;99.90
11264;DHT22;5689;48.798;9.070;2023-08-20T03:59:34;21.30;99.90
11264;DHT22;5689;48.798;9.070;2023-08-20T04:02:02;21.30;99.90
11264;DHT22;5689;48.798;9.070;2023-08-20T04:04:31;21.50;99.90
11264;DHT22;5689;48.798;9.070;2023-08-20T04:06:59;21.50;99.90
11264;DHT22;5689;48.798;9.070;2023-08-20T04:09:27;21.60;99.90
11264;DHT22;5689;48.798;9.070;2023-08-20T04:11:56;21.40;99.90
11264;DHT22;5689;48.798;9.070;2023-08-20T04:14:24;21.40;99.90
11264;DHT22;5689;48.798;9.070;2023-08-20T04:16:52;21.30;99.90
11264;DHT22;5689;48.798;9.070;2023-08-20T04:19:20;21.20;99.90
11264;DHT22;5689;48.798;9.070;2023-08-20T04:21:49;21.10;99.90
11264;DHT22;5689;48.798;9.070;2023-08-20T04:24:18;21.20;99.90
11264;DHT22;5689;48.798;9.070;2023-08-20T04:26:46;21.30;99.90
11264;DHT22;5689;48.798;9.070;2023-08-20T04:29:19;21.30;99.90
11264;DHT22;5689;48.798;9.070;2023-08-20T04:31:47;21.10;99.90
11264;DHT22;5689;48.798;9.070;2023-08-20T04:34:16;21.00;99.90
11264;DHT22;5689;48.798;9.070;2023-08-20T04:36:49;21.00;99.90
11264;DHT22;5689;48.798;9.070;2023-08-20T04:39:18;20.90;99.90
11264;DHT22;5689;48.798;9.070;2023-08-20T04:41:51;21.00;99.90
11264;DHT22;5689;48.798;9.070;2023-08-20T04:44:21;21.30;99.90
11264;DHT22;5689;48.798;9.070;2023-08-20T04:46:49;21.40;99.90
11264;DHT22;5689;48.798;9.070;2023-08-20T04:49:18;21.40;99.90
11264;DHT22;5689;48.798;9.070;2023-08-20T04:51:46;21.20;99.90
11264;DHT22;5689;48.798;9.070;2023-08-20T04:54:15;21.40;99.90
11264;DHT22;5689;48.798;9.070;2023-08-20T04:56:43;21.30;99.90
11264;DHT22;5689;48.798;9.070;2023-08-20T04:59:11;21.10;99.90
11264;DHT22;5689;48.798;9.070;2023-08-20T05:01:59;21.20;99.90
11264;DHT22;5689;48.798;9.070;2023-08-20T05:04:39;21.20;99.90
11264;DHT22;5689;48.798;9.070;2023-08-20T05:07:07;21.10;99.90
11264;DHT22;5689;48.798;9.070;2023-08-20T05:09:37;21.20;99.90
11264;DHT22;5689;48.798;9.070;2023-08-20T05:12:07;21.20;99.90
11264;DHT22;5689;48.798;9.070;2023-08-20T05:14:35;21.00;99.90
11264;DHT22;5689;48.798;9.070;2023-08-20T05:17:03;21.00;99.90
11264;DHT22;5689;48.798;9.070;2023-08-20T05:19:31;21.10;99.90
11264;DHT22;5689;48.798;9.070;2023-08-20T05:21:59;21.20;99.90
11264;DHT22;5689;48.798;9.070;2023-08-20T05:24:31;21.20;99.90
11264;DHT22;5689;48.798;9.070;2023-08-20T05:27:08;21.40;99.90
11264;DHT22;5689;48.798;9.070;2023-08-20T05:29:37;21.50;99.90
11264;DHT22;5689;48.798;9.070;2023-08-20T05:32:06;21.60;99.90
11264;DHT22;5689;48.798;9.070;2023-08-20T05:34:34;21.70;99.90
11264;DHT22;5689;48.798;9.070;2023-08-20T05:37:03;22.00;99.90
11264;DHT22;5689;48.798;9.070;2023-08-20T05:39:37;22.20;99.90
11264;DHT22;5689;48.798;9.070;2023-08-20T05:42:06;22.40;99.90
11264;DHT22;5689;48.798;9.070;2023-08-20T05:44:36;22.70;99.90
11264;DHT22;5689;48.798;9.070;2023-08-20T05:47:05;22.90;99.90
11264;DHT22;5689;48.798;9.070;2023-08-20T05:49:33;22.90;99.90
11264;DHT22;5689;48.798;9.070;2023-08-20T05:52:01;23.10;99.90
11264;DHT22;5689;48.798;9.070;2023-08-20T05:54:30;23.60;99.90
11264;DHT22;5689;48.798;9.070;2023-08-20T05:56:58;24.10;99.90
11264;DHT22;5689;48.798;9.070;2023-08-20T05:59:28;24.80;99.90
11264;DHT22;5689;48.798;9.070;2023-08-20T06:01:56;25.40;99.90
11264;DHT22;5689;48.798;9.070;2023-08-20T06:04:23;25.80;99.90
11264;DHT22;5689;48.798;9.070;2023-08-20T06:06:51;26.00;99.90
11264;DHT22;5689;48.798;9.070;2023-08-20T06:09:19;26.20;99.90
11264;DHT22;5689;48.798;9.070;2023-08-20T06:11:47;26.70;99.90
11264;DHT22;5689;48.798;9.070;2023-08-20T06:14:16;26.60;99.90
11264;DHT22;5689;48.798;9.070;2023-08-20T06:16:45;26.10;99.90
11264;DHT22;5689;48.798;9.070;2023-08-20T06:19:13;26.00;99.90
11264;DHT22;5689;48.798;9.070;2023-08-20T06:21:41;26.20;99.90
11264;DHT22;5689;48.798;9.070;2023-08-20T06:24:09;25.70;99.90
11264;DHT22;5689;48.798;9.070;2023-08-20T06:26:38;25.70;99.90
11264;DHT22;5689;48.798;9.070;2023-08-20T06:29:05;25.90;99.90
11264;DHT22;5689;48.798;9.070;2023-08-20T06:31:33;26.20;99.90
11264;DHT22;5689;48.798;9.070;2023-08-20T06:34:03;26.40;99.90
11264;DHT22;5689;48.798;9.070;2023-08-20T06:36:31;26.80;99.90
11264;DHT22;5689;48.798;9.070;2023-08-20T06:38:59;26.70;99.90
11264;DHT22;5689;48.798;9.070;2023-08-20T06:41:27;27.00;99.90
11264;DHT22;5689;48.798;9.070;2023-08-20T06:43:55;28.10;99.90
11264;DHT22;5689;48.798;9.070;2023-08-20T06:46:23;28.50;99.90
11264;DHT22;5689;48.798;9.070;2023-08-20T06:48:51;28.90;99.90
11264;DHT22;5689;48.798;9.070;2023-08-20T06:51:21;28.60;99.90
11264;DHT22;5689;48.798;9.070;2023-08-20T06:53:49;27.30;99.90
11264;DHT22;5689;48.798;9.070;2023-08-20T06:56:17;27.50;99.90
11264;DHT22;5689;48.798;9.070;2023-08-20T06:58:46;28.10;99.90
11264;DHT22;5689;48.798;9.070;2023-08-20T07:01:14;29.00;99.90
11264;DHT22;5689;48.798;9.070;2023-08-20T07:03:43;29.00;99.90
11264;DHT22;5689;48.798;9.070;2023-08-20T07:06:12;28.50;99.90
11264;DHT22;5689;48.798;9.070;2023-08-20T07:08:42;28.90;99.90
11264;DHT22;5689;48.798;9.070;2023-08-20T07:11:10;28.70;99.90
11264;DHT22;5689;48.798;9.070;2023-08-20T07:13:38;29.10;99.90
11264;DHT22;5689;48.798;9.070;2023-08-20T07:16:06;30.20;99.90
11264;DHT22;5689;48.798;9.070;2023-08-20T07:18:34;29.80;99.90
11264;DHT22;5689;48.798;9.070;2023-08-20T07:21:02;29.60;99.90
11264;DHT22;5689;48.798;9.070;2023-08-20T07:23:30;30.50;99.90
11264;DHT22;5689;48.798;9.070;2023-08-20T07:26:06;31.10;99.90
11264;DHT22;5689;48.798;9.070;2023-08-20T07:28:34;29.20;99.90
11264;DHT22;5689;48.798;9.070;2023-08-20T07:31:20;28.10;99.90
11264;DHT22;5689;48.798;9.070;2023-08-20T07:33:48;28.20;99.90
11264;DHT22;5689;48.798;9.070;2023-08-20T07:36:17;29.30;99.90
11264;DHT22;5689;48.798;9.070;2023-08-20T07:38:45;29.20;99.90
11264;DHT22;5689;48.798;9.070;2023-08-20T07:41:15;27.90;99.90
11264;DHT22;5689;48.798;9.070;2023-08-20T07:43:43;27.30;99.90
11264;DHT22;5689;48.798;9.070;2023-08-20T07:46:12;27.00;99.90
11264;DHT22;5689;48.798;9.070;2023-08-20T07:48:41;27.60;99.90
11264;DHT22;5689;48.798;9.070;2023-08-20T07:51:09;28.20;99.90
11264;DHT22;5689;48.798;9.070;2023-08-20T07:53:37;27.70;99.90
11264;DHT22;5689;48.798;9.070;2023-08-20T07:56:05;27.90;99.90
11264;DHT22;5689;48.798;9.070;2023-08-20T07:58:34;29.20;99.90
11264;DHT22;5689;48.798;9.070;2023-08-20T08:01:02;30.80;99.90
11264;DHT22;5689;48.798;9.070;2023-08-20T08:03:30;31.90;99.90
11264;DHT22;5689;48.798;9.070;2023-08-20T08:05:58;32.40;99.90
11264;DHT22;5689;48.798;9.070;2023-08-20T08:08:26;32.70;99.90
11264;DHT22;5689;48.798;9.070;2023-08-20T08:10:54;32.40;99.90
11264;DHT22;5689;48.798;9.070;2023-08-20T08:13:23;32.10;99.90
11264;DHT22;5689;48.798;9.070;2023-08-20T08:15:52;33.10;99.90
11264;DHT22;5689;48.798;9.070;2023-08-20T08:18:20;34.00;99.40
11264;DHT22;5689;48.798;9.070;2023-08-20T08:20:49;33.80;99.20
11264;DHT22;5689;48.798;9.070;2023-08-20T08:23:17;32.20;99.90
11264;DHT22;5689;48.798;9.070;2023-08-20T08:25:45;31.80;99.90
11264;DHT22;5689;48.798;9.070;2023-08-20T08:28:13;33.60;99.90
11264;DHT22;5689;48.798;9.070;2023-08-20T08:30:41;32.90;99.90
11264;DHT22;5689;48.798;9.070;2023-08-20T08:33:10;33.40;99.90
11264;DHT22;5689;48.798;9.070;2023-08-20T08:35:38;31.90;99.90
11264;DHT22;5689;48.798;9.070;2023-08-20T08:38:06;32.80;99.90
11264;DHT22;5689;48.798;9.070;2023-08-20T08:40:35;34.30;99.80
11264;DHT22;5689;48.798;9.070;2023-08-20T08:43:03;35.10;98.40
11264;DHT22;5689;48.798;9.070;2023-08-20T08:45:33;34.40;98.80
11264;DHT22;5689;48.798;9.070;2023-08-20T08:48:02;33.70;99.90
11264;DHT22;5689;48.798;9.070;2023-08-20T08:50:32;35.20;96.60
11264;DHT22;5689;48.798;9.070;2023-08-20T08:53:00;36.40;94.20
11264;DHT22;5689;48.798;9.070;2023-08-20T08:55:29;35.40;95.00
11264;DHT22;5689;48.798;9.070;2023-08-20T08:57:57;34.70;96.40
11264;DHT22;5689;48.798;9.070;2023-08-20T09:00:25;34.70;96.10
11264;DHT22;5689;48.798;9.070;2023-08-20T09:02:53;35.40;95.40
11264;DHT22;5689;48.798;9.070;2023-08-20T09:05:21;36.10;93.00
11264;DHT22;5689;48.798;9.070;2023-08-20T09:07:55;35.80;95.30
11264;DHT22;5689;48.798;9.070;2023-08-20T09:10:26;36.80;92.50
11264;DHT22;5689;48.798;9.070;2023-08-20T09:12:55;36.70;93.00
11264;DHT22;5689;48.798;9.070;2023-08-20T09:15:33;37.90;90.10
11264;DHT22;5689;48.798;9.070;2023-08-20T09:18:02;38.40;86.60
11264;DHT22;5689;48.798;9.070;2023-08-20T09:20:34;36.30;90.80
11264;DHT22;5689;48.798;9.070;2023-08-20T09:23:05;35.60;91.80
11264;DHT22;5689;48.798;9.070;2023-08-20T09:25:38;36.50;90.70
11264;DHT22;5689;48.798;9.070;2023-08-20T09:28:06;37.60;86.40
11264;DHT22;5689;48.798;9.070;2023-08-20T09:30:34;37.40;87.30
11264;DHT22;5689;48.798;9.070;2023-08-20T09:33:04;37.30;86.40
11264;DHT22;5689;48.798;9.070;2023-08-20T09:35:32;36.20;90.70
11264;DHT22;5689;48.798;9.070;2023-08-20T09:38:00;36.50;90.00
11264;DHT22;5689;48.798;9.070;2023-08-20T09:40:30;35.70;89.30
11264;DHT22;5689;48.798;9.070;2023-08-20T09:43:00;35.70;88.40
11264;DHT22;5689;48.798;9.070;2023-08-20T09:45:29;37.30;82.30
11264;DHT22;5689;48.798;9.070;2023-08-20T09:47:58;35.60;87.00
11264;DHT22;5689;48.798;9.070;2023-08-20T09:50:27;36.00;84.70
11264;DHT22;5689;48.798;9.070;2023-08-20T09:52:58;37.00;82.50
11264;DHT22;5689;48.798;9.070;2023-08-20T09:55:33;37.10;82.70
11264;DHT22;5689;48.798;9.070;2023-08-20T09:58:02;38.30;80.60
11264;DHT22;5689;48.798;9.070;2023-08-20T10:00:31;36.80;81.60
11264;DHT22;5689;48.798;9.070;2023-08-20T10:03:00;35.80;87.10
11264;DHT22;5689;48.798;9.070;2023-08-20T10:05:28;37.20;82.30
11264;DHT22;5689;48.798;9.070;2023-08-20T10:07:58;38.50;77.00
11264;DHT22;5689;48.798;9.070;2023-08-20T10:10:27;38.00;75.40
11264;DHT22;5689;48.798;9.070;2023-08-20T10:12:56;36.00;80.70
11264;DHT22;5689;48.798;9.070;2023-08-20T10:15:25;38.10;78.30
11264;DHT22;5689;48.798;9.070;2023-08-20T10:17:57;39.70;74.70
11264;DHT22;5689;48.798;9.070;2023-08-20T10:20:28;40.00;72.30
11264;DHT22;5689;48.798;9.070;2023-08-20T10:23:00;40.20;73.20
11264;DHT22;5689;48.798;9.070;2023-08-20T10:25:30;39.30;73.60
11264;DHT22;5689;48.798;9.070;2023-08-20T10:28:13;40.00;71.20
11264;DHT22;5689;48.798;9.070;2023-08-20T10:31:04;37.50;75.40
11264;DHT22;5689;48.798;9.070;2023-08-20T10:33:34;38.80;72.10
11264;DHT22;5689;48.798;9.070;2023-08-20T10:36:12;37.80;75.90
11264;DHT22;5689;48.798;9.070;2023-08-20T10:38:41;36.50;75.80
11264;DHT22;5689;48.798;9.070;2023-08-20T10:41:09;38.20;75.50
11264;DHT22;5689;48.798;9.070;2023-08-20T10:43:39;37.10;75.20
11264;DHT22;5689;48.798;9.070;2023-08-20T10:46:13;37.40;73.00
11264;DHT22;5689;48.798;9.070;2023-08-20T10:48:42;39.70;68.90
11264;DHT22;5689;48.798;9.070;2023-08-20T10:51:12;39.80;68.90
11264;DHT22;5689;48.798;9.070;2023-08-20T10:53:42;39.40;70.00
11264;DHT22;5689;48.798;9.070;2023-08-20T10:56:12;40.10;69.20
11264;DHT22;5689;48.798;9.070;2023-08-20T10:58:46;42.00;64.20
11264;DHT22;5689;48.798;9.070;2023-08-20T11:01:20;40.70;68.60
11264;DHT22;5689;48.798;9.070;2023-08-20T11:03:49;39.30;70.00
11264;DHT22;5689;48.798;9.070;2023-08-20T11:06:18;40.10;67.50
11264;DHT22;5689;48.798;9.070;2023-08-20T11:08:46;40.00;67.70
11264;DHT22;5689;48.798;9.070;2023-08-20T11:11:15;41.60;65.30
11264;DHT22;5689;48.798;9.070;2023-08-20T11:13:47;41.10;64.80
11264;DHT22;5689;48.798;9.070;2023-08-20T11:16:15;41.10;63.10
11264;DHT22;5689;48.798;9.070;2023-08-20T11:18:43;41.70;61.50
11264;DHT22;5689;48.798;9.070;2023-08-20T11:21:13;40.80;65.50
11264;DHT22;5689;48.798;9.070;2023-08-20T11:23:41;42.10;62.40
11264;DHT22;5689;48.798;9.070;2023-08-20T11:26:10;42.70;60.10
11264;DHT22;5689;48.798;9.070;2023-08-20T11:28:38;43.30;61.20
11264;DHT22;5689;48.798;9.070;2023-08-20T11:31:08;41.10;63.60
11264;DHT22;5689;48.798;9.070;2023-08-20T11:33:36;40.60;63.40
11264;DHT22;5689;48.798;9.070;2023-08-20T11:36:05;41.70;58.90
11264;DHT22;5689;48.798;9.070;2023-08-20T11:38:33;42.20;61.10
11264;DHT22;5689;48.798;9.070;2023-08-20T11:41:02;42.00;60.30
11264;DHT22;5689;48.798;9.070;2023-08-20T11:43:30;41.00;60.00
11264;DHT22;5689;48.798;9.070;2023-08-20T11:45:58;44.00;54.30
11264;DHT22;5689;48.798;9.070;2023-08-20T11:48:28;44.20;53.60
11264;DHT22;5689;48.798;9.070;2023-08-20T11:50:57;42.30;57.00
11264;DHT22;5689;48.798;9.070;2023-08-20T11:53:28;44.10;54.40
11264;DHT22;5689;48.798;9.070;2023-08-20T11:55:56;42.60;56.30
11264;DHT22;5689;48.798;9.070;2023-08-20T11:58:24;44.40;54.40
11264;DHT22;5689;48.798;9.070;2023-08-20T12:00:52;43.00;55.10
11264;DHT22;5689;48.798;9.070;2023-08-20T12:03:20;43.50;56.10
11264;DHT22;5689;48.798;9.070;2023-08-20T12:05:50;41.80;57.70
11264;DHT22;5689;48.798;9.070;2023-08-20T12:08:19;44.30;54.50
11264;DHT22;5689;48.798;9.070;2023-08-20T12:10:47;42.50;55.90
11264;DHT22;5689;48.798;9.070;2023-08-20T12:13:15;42.00;57.90
11264;DHT22;5689;48.798;9.070;2023-08-20T12:15:43;42.30;56.30
11264;DHT22;5689;48.798;9.070;2023-08-20T12:18:12;41.50;57.50
11264;DHT22;5689;48.798;9.070;2023-08-20T12:20:40;42.90;57.20
11264;DHT22;5689;48.798;9.070;2023-08-20T12:23:10;42.70;58.00
11264;DHT22;5689;48.798;9.070;2023-08-20T12:25:39;41.80;59.70
11264;DHT22;5689;48.798;9.070;2023-08-20T12:28:07;41.30;60.60
11264;DHT22;5689;48.798;9.070;2023-08-20T12:30:35;42.40;57.70
11264;DHT22;5689;48.798;9.070;2023-08-20T12:33:05;45.10;55.00
11264;DHT22;5689;48.798;9.070;2023-08-20T12:35:33;45.60;53.70
11264;DHT22;5689;48.798;9.070;2023-08-20T12:38:01;42.10;57.70
11264;DHT22;5689;48.798;9.070;2023-08-20T12:40:31;41.90;61.20
11264;DHT22;5689;48.798;9.070;2023-08-20T12:42:59;42.30;58.20
11264;DHT22;5689;48.798;9.070;2023-08-20T12:45:26;44.30;55.20
11264;DHT22;5689;48.798;9.070;2023-08-20T12:47:54;43.70;57.60
11264;DHT22;5689;48.798;9.070;2023-08-20T12:50:24;41.40;62.00
11264;DHT22;5689;48.798;9.070;2023-08-20T12:52:52;40.40;62.70
11264;DHT22;5689;48.798;9.070;2023-08-20T12:55:20;40.40;63.50
11264;DHT22;5689;48.798;9.070;2023-08-20T12:57:54;41.40;60.00
11264;DHT22;5689;48.798;9.070;2023-08-20T13:00:22;42.70;58.90
11264;DHT22;5689;48.798;9.070;2023-08-20T13:02:52;44.20;56.00
11264;DHT22;5689;48.798;9.070;2023-08-20T13:05:22;43.60;56.20
11264;DHT22;5689;48.798;9.070;2023-08-20T13:07:51;41.20;60.20
11264;DHT22;5689;48.798;9.070;2023-08-20T13:10:21;39.20;65.20
11264;DHT22;5689;48.798;9.070;2023-08-20T13:12:51;40.80;61.70
11264;DHT22;5689;48.798;9.070;2023-08-20T13:15:23;41.40;60.90
11264;DHT22;5689;48.798;9.070;2023-08-20T13:17:52;39.40;65.50
11264;DHT22;5689;48.798;9.070;2023-08-20T13:20:20;39.30;66.10
11264;DHT22;5689;48.798;9.070;2023-08-20T13:22:50;40.60;63.60
11264;DHT22;5689;48.798;9.070;2023-08-20T13:25:18;41.10;63.40
11264;DHT22;5689;48.798;9.070;2023-08-20T13:27:48;40.70;63.10
11264;DHT22;5689;48.798;9.070;2023-08-20T13:30:16;43.20;58.60
11264;DHT22;5689;48.798;9.070;2023-08-20T13:32:46;42.20;59.50
11264;DHT22;5689;48.798;9.070;2023-08-20T13:35:14;42.90;58.20
11264;DHT22;5689;48.798;9.070;2023-08-20T13:37:42;43.30;56.40
11264;DHT22;5689;48.798;9.070;2023-08-20T13:40:10;42.00;57.90
11264;DHT22;5689;48.798;9.070;2023-08-20T13:42:38;40.80;60.60
11264;DHT22;5689;48.798;9.070;2023-08-20T13:45:07;40.90;60.00
11264;DHT22;5689;48.798;9.070;2023-08-20T13:47:36;41.60;58.30
11264;DHT22;5689;48.798;9.070;2023-08-20T13:50:06;43.20;58.00
11264;DHT22;5689;48.798;9.070;2023-08-20T13:52:34;42.10;59.00
11264;DHT22;5689;48.798;9.070;2023-08-20T13:55:02;43.70;56.10
11264;DHT22;5689;48.798;9.070;2023-08-20T13:57:30;44.60;54.10
11264;DHT22;5689;48.798;9.070;2023-08-20T13:59:58;43.70;56.20
11264;DHT22;5689;48.798;9.070;2023-08-20T14:02:26;42.70;56.60
11264;DHT22;5689;48.798;9.070;2023-08-20T14:04:55;40.80;58.80
11264;DHT22;5689;48.798;9.070;2023-08-20T14:07:24;40.60;59.00
11264;DHT22;5689;48.798;9.070;2023-08-20T14:09:52;40.40;59.60
11264;DHT22;5689;48.798;9.070;2023-08-20T14:12:20;40.70;58.80
11264;DHT22;5689;48.798;9.070;2023-08-20T14:14:48;40.60;59.70
11264;DHT22;5689;48.798;9.070;2023-08-20T14:17:17;42.10;56.00
11264;DHT22;5689;48.798;9.070;2023-08-20T14:19:45;42.30;56.50
11264;DHT22;5689;48.798;9.070;2023-08-20T14:22:13;43.70;54.20
11264;DHT22;5689;48.798;9.070;2023-08-20T14:24:42;43.80;54.90
11264;DHT22;5689;48.798;9.070;2023-08-20T14:27:10;42.20;56.90
11264;DHT22;5689;48.798;9.070;2023-08-20T14:29:38;40.30;59.80
11264;DHT22;5689;48.798;9.070;2023-08-20T14:32:06;40.80;58.90
11264;DHT22;5689;48.798;9.070;2023-08-20T14:34:34;40.80;60.30
11264;DHT22;5689;48.798;9.070;2023-08-20T14:37:03;40.80;58.70
11264;DHT22;5689;48.798;9.070;2023-08-20T14:39:31;40.40;59.50
11264;DHT22;5689;48.798;9.070;2023-08-20T14:42:01;42.30;56.40
11264;DHT22;5689;48.798;9.070;2023-08-20T14:44:29;42.00;56.70
11264;DHT22;5689;48.798;9.070;2023-08-20T14:46:57;39.90;60.50
11264;DHT22;5689;48.798;9.070;2023-08-20T14:49:25;38.40;62.00
11264;DHT22;5689;48.798;9.070;2023-08-20T14:51:55;38.10;63.80
11264;DHT22;5689;48.798;9.070;2023-08-20T14:54:28;36.60;65.40
11264;DHT22;5689;48.798;9.070;2023-08-20T14:56:56;35.40;69.20
11264;DHT22;5689;48.798;9.070;2023-08-20T14:59:26;34.90;69.60
11264;DHT22;5689;48.798;9.070;2023-08-20T15:01:54;34.90;69.20
11264;DHT22;5689;48.798;9.070;2023-08-20T15:04:22;34.80;69.90
11264;DHT22;5689;48.798;9.070;2023-08-20T15:06:50;35.70;66.50
11264;DHT22;5689;48.798;9.070;2023-08-20T15:09:18;36.00;66.80
11264;DHT22;5689;48.798;9.070;2023-08-20T15:11:47;36.10;66.70
11264;DHT22;5689;48.798;9.070;2023-08-20T15:14:15;37.10;65.60
11264;DHT22;5689;48.798;9.070;2023-08-20T15:16:45;37.90;64.10
11264;DHT22;5689;48.798;9.070;2023-08-20T15:19:13;37.90;63.90
11264;DHT22;5689;48.798;9.070;2023-08-20T15:21:41;36.10;68.20
11264;DHT22;5689;48.798;9.070;2023-08-20T15:24:09;35.10;70.30
11264;DHT22;5689;48.798;9.070;2023-08-20T15:26:37;36.40;68.70
11264;DHT22;5689;48.798;9.070;2023-08-20T15:29:05;37.10;66.90
11264;DHT22;5689;48.798;9.070;2023-08-20T15:31:33;36.10;67.40
11264;DHT22;5689;48.798;9.070;2023-08-20T15:34:03;36.60;67.80
11264;DHT22;5689;48.798;9.070;2023-08-20T15:36:32;37.00;67.60
11264;DHT22;5689;48.798;9.070;2023-08-20T15:39:00;37.50;65.70
11264;DHT22;5689;48.798;9.070;2023-08-20T15:41:27;37.90;66.80
11264;DHT22;5689;48.798;9.070;2023-08-20T15:43:55;41.50;59.50
11264;DHT22;5689;48.798;9.070;2023-08-20T15:46:23;41.80;58.60
11264;DHT22;5689;48.798;9.070;2023-08-20T15:48:52;38.50;63.20
11264;DHT22;5689;48.798;9.070;2023-08-20T15:51:22;38.80;62.50
11264;DHT22;5689;48.798;9.070;2023-08-20T15:53:50;38.80;63.00
11264;DHT22;5689;48.798;9.070;2023-08-20T15:56:18;37.30;65.70